createdAt,value
2022-09-26T00:02:42.086Z,87.61
2022-09-26T00:05:50.667Z,87.06
2022-09-26T00:08:59.462Z,87.14
2022-09-26T00:12:09.200Z,86.87
2022-09-26T00:15:18.005Z,86.36
2022-09-26T00:18:27.142Z,86.36
2022-09-26T00:21:36.394Z,86.28
2022-09-26T00:24:44.782Z,85.63
2022-09-26T00:27:54.230Z,86.29
2022-09-26T00:31:06.271Z,86.86
2022-09-26T00:34:17.567Z,86.21
2022-09-26T00:37:26.017Z,86.55
2022-09-26T00:40:35.506Z,85.98
2022-09-26T00:43:47.797Z,85.81
2022-09-26T00:46:56.473Z,86.06
2022-09-26T00:50:13.396Z,85.91
2022-09-26T00:53:26.929Z,85.49
2022-09-26T00:56:38.110Z,85.53
2022-09-26T00:59:54.525Z,85.52
2022-09-26T01:03:03.230Z,86.51
2022-09-26T01:06:12.649Z,86.54
2022-09-26T01:09:22.600Z,86.45
2022-09-26T01:12:31.073Z,85.36
2022-09-26T01:15:42.736Z,86.12
2022-09-26T01:18:52.946Z,85.75
2022-09-26T01:22:31.133Z,86.60
2022-09-26T01:26:27.803Z,86.29
2022-09-26T01:30:07.569Z,86.01
2022-09-26T01:34:01.718Z,85.58
2022-09-26T01:37:21.894Z,86.13
2022-09-26T01:40:41.608Z,85.99
2022-09-26T01:44:02.593Z,86.13
2022-09-26T01:47:18.890Z,86.44
2022-09-26T01:50:37.510Z,85.69
2022-09-26T01:53:56.662Z,86.65
2022-09-26T01:57:12.106Z,85.79
2022-09-26T02:00:21.839Z,86.09
2022-09-26T02:03:38.330Z,86.49
2022-09-26T02:06:57.474Z,85.72
2022-09-26T02:10:18.181Z,85.93
2022-09-26T02:13:36.522Z,85.56
2022-09-26T02:16:50.332Z,85.81
2022-09-26T02:20:03.119Z,86.15
2022-09-26T02:23:11.897Z,86.68
2022-09-26T02:26:21.517Z,86.62
2022-09-26T02:29:29.979Z,86.45
2022-09-26T02:32:40.427Z,86.97
2022-09-26T02:35:56.474Z,86.84
2022-09-26T02:39:08.281Z,87.28
2022-09-26T02:42:36.444Z,86.77
2022-09-26T02:45:55.396Z,85.78
2022-09-26T02:49:27.295Z,86.37
2022-09-26T02:52:51.553Z,85.98
2022-09-26T02:56:23.612Z,85.76
2022-09-26T02:59:39.143Z,86.10
2022-09-26T03:02:56.558Z,85.69
2022-09-26T03:06:11.038Z,85.99
2022-09-26T03:09:25.337Z,85.51
2022-09-26T03:12:37.194Z,85.99
2022-09-26T03:15:52.707Z,86.16
2022-09-26T03:19:14.793Z,86.95
2022-09-26T03:22:23.283Z,86.80
2022-09-26T03:25:33.509Z,87.02
2022-09-26T03:28:47.235Z,86.60
2022-09-26T03:31:55.685Z,86.07
2022-09-26T03:35:04.140Z,85.51
2022-09-26T03:38:14.413Z,85.98
2022-09-26T03:41:30.266Z,85.85
2022-09-26T03:44:45.870Z,86.50
2022-09-26T03:47:57.504Z,86.81
2022-09-26T03:51:10.958Z,85.85
2022-09-26T03:54:19.314Z,85.90
2022-09-26T03:57:30.657Z,87.10
2022-09-26T04:00:46.983Z,86.52
2022-09-26T04:03:55.688Z,85.80
2022-09-26T04:07:03.893Z,86.34
2022-09-26T04:10:13.215Z,86.06
2022-09-26T04:13:49.559Z,85.32
2022-09-26T04:16:51.759Z,84.98
2022-09-26T04:20:26.415Z,86.24
2022-09-26T04:23:37.537Z,85.80
2022-09-26T04:26:46.461Z,86.08
2022-09-26T04:29:57.287Z,86.10
2022-09-26T04:33:24.560Z,85.73
2022-09-26T04:36:48.652Z,85.90
2022-09-26T04:39:57.196Z,85.59
2022-09-26T04:43:05.288Z,85.40
2022-09-26T04:46:21.599Z,84.80
2022-09-26T04:49:32.543Z,85.81
2022-09-26T04:52:41.430Z,85.54
2022-09-26T04:55:50.125Z,85.70
2022-09-26T04:59:00.494Z,85.32
2022-09-26T05:02:21.615Z,86.02
2022-09-26T05:05:33.153Z,85.64
2022-09-26T05:08:51.815Z,85.51
2022-09-26T05:12:06.420Z,85.18
2022-09-26T05:15:15.065Z,84.83
2022-09-26T05:18:28.105Z,84.70
2022-09-26T05:21:36.764Z,85.61
2022-09-26T05:25:02.556Z,85.84
2022-09-26T05:28:11.370Z,85.17
2022-09-26T05:31:22.710Z,85.25
2022-09-26T05:34:32.715Z,85.52
2022-09-26T05:37:41.101Z,85.19
2022-09-26T05:40:59.145Z,85.08
2022-09-26T05:44:09.920Z,85.06
2022-09-26T05:47:18.986Z,84.66
2022-09-26T05:50:28.406Z,85.08
2022-09-26T05:53:36.867Z,84.25
2022-09-26T05:56:45.846Z,84.58
2022-09-26T05:59:54.251Z,83.93
2022-09-26T06:03:06.441Z,84.02
2022-09-26T06:06:29.946Z,84.00
2022-09-26T06:09:49.499Z,84.27
2022-09-26T06:13:14.248Z,83.46
2022-09-26T06:16:40.911Z,83.80
2022-09-26T06:19:49.191Z,83.79
2022-09-26T06:22:59.256Z,83.59
2022-09-26T06:26:12.630Z,83.26
2022-09-26T06:29:21.052Z,83.20
2022-09-26T06:32:29.337Z,83.11
2022-09-26T06:36:01.599Z,82.68
2022-09-26T06:39:16.353Z,83.26
2022-09-26T06:42:27.024Z,83.38
2022-09-26T06:45:54.319Z,82.61
2022-09-26T06:49:08.125Z,82.94
2022-09-26T06:52:25.724Z,82.85
2022-09-26T06:55:35.746Z,82.76
2022-09-26T06:58:44.019Z,82.22
2022-09-26T07:01:53.206Z,82.46
2022-09-26T07:05:30.773Z,81.44
2022-09-26T07:09:01.029Z,82.02
2022-09-26T07:12:25.931Z,81.35
2022-09-26T07:15:37.142Z,81.41
2022-09-26T07:19:13.607Z,81.18
2022-09-26T07:22:48.463Z,81.03
2022-09-26T07:25:56.804Z,81.05
2022-09-26T07:29:07.168Z,80.24
2022-09-26T07:32:15.854Z,79.75
2022-09-26T07:35:38.917Z,79.81
2022-09-26T07:38:49.497Z,79.67
2022-09-26T07:42:00.700Z,79.68
2022-09-26T07:45:28.705Z,78.94
2022-09-26T07:48:55.758Z,78.58
2022-09-26T07:52:22.749Z,78.00
2022-09-26T07:56:11.589Z,76.15
2022-09-26T07:59:38.092Z,75.26
2022-09-26T08:03:05.957Z,74.86
2022-09-26T08:06:20.231Z,75.39
2022-09-26T08:09:28.580Z,73.20
2022-09-26T08:12:55.432Z,74.53
2022-09-26T08:16:19.571Z,74.03
2022-09-26T08:19:30.184Z,73.29
2022-09-26T08:22:38.696Z,72.31
2022-09-26T08:25:47.672Z,70.69
2022-09-26T08:29:09.521Z,70.85
2022-09-26T08:32:18.769Z,70.77
2022-09-26T08:35:29.452Z,73.31
2022-09-26T08:38:56.826Z,75.77
2022-09-26T08:42:41.853Z,75.58
2022-09-26T08:46:42.171Z,71.86
2022-09-26T08:50:20.713Z,70.03
2022-09-26T08:53:46.966Z,71.09
2022-09-26T08:57:01.037Z,68.94
2022-09-26T09:00:20.290Z,68.83
2022-09-26T09:03:42.227Z,66.38
2022-09-26T09:06:59.957Z,68.92
2022-09-26T09:10:18.818Z,66.33
2022-09-26T09:14:06.490Z,64.88
2022-09-26T09:17:47.103Z,63.53
2022-09-26T09:21:23.698Z,60.39
2022-09-26T09:25:03.330Z,63.89
2022-09-26T09:28:35.755Z,64.76
2022-09-26T09:31:47.946Z,62.41
2022-09-26T09:35:32.983Z,63.84
2022-09-26T09:38:49.536Z,63.83
2022-09-26T09:42:30.676Z,65.51
2022-09-26T09:45:48.475Z,65.85
2022-09-26T09:49:06.792Z,66.80
2022-09-26T09:52:35.334Z,68.19
2022-09-26T09:56:02.578Z,68.80
2022-09-26T09:59:51.238Z,67.04
2022-09-26T10:03:13.578Z,67.59
2022-09-26T10:06:46.281Z,68.30
2022-09-26T10:09:54.142Z,69.27
2022-09-26T10:13:42.276Z,68.43
2022-09-26T10:17:24.655Z,67.93
2022-09-26T10:20:52.867Z,68.91
2022-09-26T10:24:04.704Z,67.08
2022-09-26T10:27:37.001Z,67.47
2022-09-26T10:30:50.072Z,63.92
2022-09-26T10:34:07.224Z,68.36
2022-09-26T10:37:30.362Z,64.63
2022-09-26T10:40:55.426Z,63.27
2022-09-26T10:44:07.917Z,62.90
2022-09-26T10:47:51.870Z,64.28
2022-09-26T10:51:29.711Z,61.88
2022-09-26T10:54:55.336Z,62.38
2022-09-26T10:58:13.882Z,61.24
2022-09-26T11:01:27.883Z,60.72
2022-09-26T11:05:09.638Z,62.09
2022-09-26T11:08:41.175Z,62.06
2022-09-26T11:12:29.217Z,61.74
2022-09-26T11:16:01.374Z,61.14
2022-09-26T11:19:22.232Z,60.41
2022-09-26T11:22:41.705Z,61.34
2022-09-26T11:26:01.314Z,60.06
2022-09-26T11:29:23.171Z,64.03
2022-09-26T11:32:49.565Z,64.34
2022-09-26T11:37:05.084Z,65.72
2022-09-26T11:40:47.278Z,67.03
2022-09-26T11:44:06.868Z,65.18
2022-09-26T11:48:33.046Z,64.19
2022-09-26T11:52:48.347Z,61.79
2022-09-26T11:56:26.703Z,60.77
2022-09-26T12:00:03.436Z,59.66
2022-09-26T12:04:03.126Z,59.11
2022-09-26T12:07:20.148Z,57.85
2022-09-26T12:10:40.890Z,60.11
2022-09-26T12:13:59.629Z,58.81
2022-09-26T12:17:23.673Z,60.10
2022-09-26T12:20:43.473Z,58.50
2022-09-26T12:23:57.317Z,57.09
2022-09-26T12:27:20.319Z,57.26
2022-09-26T12:30:38.654Z,57.60
2022-09-26T12:34:12.269Z,58.83
2022-09-26T12:37:58.360Z,58.98
2022-09-26T12:41:41.500Z,60.48
2022-09-26T12:45:23.972Z,56.05
2022-09-26T12:49:01.977Z,55.63
2022-09-26T12:52:31.258Z,56.72
2022-09-26T12:55:49.047Z,55.46
2022-09-26T12:59:16.446Z,55.91
2022-09-26T13:02:57.588Z,58.02
2022-09-26T13:07:14.750Z,55.17
2022-09-26T13:10:48.098Z,55.45
2022-09-26T13:14:19.525Z,56.71
2022-09-26T13:17:35.948Z,53.21
2022-09-26T13:20:47.416Z,53.01
2022-09-26T13:24:02.259Z,54.04
2022-09-26T13:27:22.170Z,53.97
2022-09-26T13:30:36.148Z,56.53
2022-09-26T13:33:50.622Z,57.31
2022-09-26T13:37:00.894Z,58.99
2022-09-26T13:40:24.884Z,59.34
2022-09-26T13:44:01.466Z,59.06
2022-09-26T13:47:22.458Z,59.25
2022-09-26T13:50:44.845Z,60.01
2022-09-26T13:54:05.034Z,55.74
2022-09-26T13:57:34.829Z,55.44
2022-09-26T14:00:54.576Z,51.94
2022-09-26T14:04:21.383Z,49.19
2022-09-26T14:08:09.384Z,50.14
2022-09-26T14:11:30.596Z,50.81
2022-09-26T14:14:49.412Z,54.28
2022-09-26T14:18:16.743Z,52.67
2022-09-26T14:21:37.503Z,54.57
2022-09-26T14:24:47.145Z,52.06
2022-09-26T14:28:17.222Z,49.25
2022-09-26T14:31:44.054Z,48.06
2022-09-26T14:34:59.955Z,46.69
2022-09-26T14:38:16.700Z,45.22
2022-09-26T14:41:31.103Z,46.26
2022-09-26T14:44:42.761Z,48.18
2022-09-26T14:48:07.090Z,48.93
2022-09-26T14:51:31.093Z,49.97
2022-09-26T14:54:41.997Z,50.38
2022-09-26T14:57:50.213Z,53.33
2022-09-26T15:01:03.476Z,50.95
2022-09-26T15:04:19.854Z,52.03
2022-09-26T15:07:36.359Z,51.62
2022-09-26T15:10:46.672Z,51.49
2022-09-26T15:13:56.462Z,50.83
2022-09-26T15:17:09.018Z,48.33
2022-09-26T15:20:22.516Z,47.39
2022-09-26T15:23:35.706Z,44.66
2022-09-26T15:26:44.771Z,45.55
2022-09-26T15:29:58.001Z,46.70
2022-09-26T15:33:07.412Z,45.96
2022-09-26T15:36:16.953Z,46.72
2022-09-26T15:39:42.361Z,48.84
2022-09-26T15:43:07.245Z,45.99
2022-09-26T15:46:24.142Z,51.19
2022-09-26T15:49:32.667Z,50.48
2022-09-26T15:52:48.321Z,51.17
2022-09-26T15:56:03.321Z,53.79
2022-09-26T15:59:18.535Z,53.72
2022-09-26T16:02:36.516Z,55.26
2022-09-26T16:05:46.784Z,56.52
2022-09-26T16:09:10.337Z,56.75
2022-09-26T16:12:22.906Z,58.14
2022-09-26T16:15:32.388Z,58.29
2022-09-26T16:18:53.321Z,58.24
2022-09-26T16:22:44.584Z,58.57
2022-09-26T16:25:56.351Z,59.39
2022-09-26T16:29:06.460Z,60.87
2022-09-26T16:32:22.979Z,61.69
2022-09-26T16:35:33.510Z,62.67
2022-09-26T16:38:42.023Z,63.68
2022-09-26T16:42:05.636Z,64.60
2022-09-26T16:45:16.804Z,64.92
2022-09-26T16:48:41.456Z,66.46
2022-09-26T16:52:22.711Z,66.34
2022-09-26T16:55:37.487Z,68.42
2022-09-26T16:58:53.315Z,69.12
2022-09-26T17:02:03.057Z,69.88
2022-09-26T17:05:18.498Z,70.73
2022-09-26T17:08:29.506Z,70.82
2022-09-26T17:11:38.061Z,71.71
2022-09-26T17:14:51.841Z,72.20
2022-09-26T17:18:06.518Z,72.75
2022-09-26T17:21:14.752Z,73.67
2022-09-26T17:24:25.110Z,74.16
2022-09-26T17:27:38.091Z,74.23
2022-09-26T17:30:47.069Z,74.50
2022-09-26T17:33:58.269Z,75.27
2022-09-26T17:37:06.645Z,74.31
2022-09-26T17:40:19.250Z,74.62
2022-09-26T17:43:27.597Z,74.40
2022-09-26T17:46:38.241Z,74.78
2022-09-26T17:49:56.308Z,73.58
2022-09-26T17:53:07.796Z,73.75
2022-09-26T17:56:16.576Z,73.67
2022-09-26T17:59:28.733Z,73.21
2022-09-26T18:02:44.426Z,73.44
2022-09-26T18:05:55.962Z,73.50
2022-09-26T18:09:10.251Z,73.34
2022-09-26T18:12:24.313Z,72.83
2022-09-26T18:15:32.941Z,72.23
2022-09-26T18:18:41.367Z,72.36
2022-09-26T18:21:56.667Z,72.55
2022-09-26T18:25:09.628Z,71.84
2022-09-26T18:28:22.228Z,72.50
2022-09-26T18:31:34.753Z,72.19
2022-09-26T18:34:44.372Z,72.44
2022-09-26T18:37:55.815Z,72.47
2022-09-26T18:41:06.998Z,72.82
2022-09-26T18:44:18.898Z,72.78
2022-09-26T18:47:27.587Z,73.03
2022-09-26T18:50:39.234Z,71.95
2022-09-26T18:53:48.846Z,72.03
2022-09-26T18:57:14.840Z,72.31
2022-09-26T19:00:23.402Z,72.36
2022-09-26T19:03:35.684Z,72.54
2022-09-26T19:06:47.048Z,72.47
2022-09-26T19:09:57.768Z,72.73
2022-09-26T19:13:07.010Z,71.71
2022-09-26T19:16:16.245Z,70.85
2022-09-26T19:19:25.957Z,70.19
2022-09-26T19:22:34.763Z,68.85
2022-09-26T19:25:44.584Z,68.61
2022-09-26T19:28:54.091Z,68.65
2022-09-26T19:32:04.232Z,68.37
2022-09-26T19:35:24.047Z,67.93
2022-09-26T19:38:32.520Z,68.18
2022-09-26T19:41:42.399Z,69.27
2022-09-26T19:44:51.281Z,69.85
2022-09-26T19:47:59.441Z,70.55
2022-09-26T19:51:12.290Z,70.97
2022-09-26T19:54:20.680Z,70.64
2022-09-26T19:57:30.459Z,70.43
2022-09-26T20:00:41.679Z,70.56
2022-09-26T20:03:50.815Z,70.22
2022-09-26T20:06:59.640Z,69.46
2022-09-26T20:10:17.046Z,70.33
2022-09-26T20:13:27.091Z,70.62
2022-09-26T20:16:39.236Z,70.75
2022-09-26T20:19:48.601Z,71.34
2022-09-26T20:22:57.389Z,71.10
2022-09-26T20:26:06.088Z,71.70
2022-09-26T20:29:17.941Z,71.82
2022-09-26T20:32:26.564Z,72.47
2022-09-26T20:35:39.963Z,71.12
2022-09-26T20:38:53.492Z,71.42
2022-09-26T20:42:01.994Z,71.35
2022-09-26T20:45:19.009Z,70.78
2022-09-26T20:48:29.415Z,70.10
2022-09-26T20:51:38.758Z,70.00
2022-09-26T20:54:47.804Z,70.69
2022-09-26T20:57:59.526Z,70.33
2022-09-26T21:01:15.096Z,70.36
2022-09-26T21:04:32.349Z,70.32
2022-09-26T21:07:40.970Z,68.62
2022-09-26T21:10:49.465Z,68.80
2022-09-26T21:13:57.617Z,69.81
2022-09-26T21:17:18.464Z,69.27
2022-09-26T21:20:30.474Z,69.55
2022-09-26T21:23:46.599Z,68.91
2022-09-26T21:26:54.766Z,68.95
2022-09-26T21:30:02.951Z,69.24
2022-09-26T21:33:15.419Z,68.79
2022-09-26T21:36:24.972Z,69.21
2022-09-26T21:39:33.240Z,69.88
2022-09-26T21:42:45.546Z,68.64
2022-09-26T21:45:53.837Z,69.16
2022-09-26T21:49:03.407Z,69.08
2022-09-26T21:52:18.869Z,69.57
2022-09-26T21:55:33.570Z,69.89
2022-09-26T21:58:43.298Z,69.47
2022-09-26T22:01:51.678Z,69.82
2022-09-26T22:05:01.293Z,70.33
2022-09-26T22:08:10.029Z,70.40
2022-09-26T22:11:18.279Z,69.96
2022-09-26T22:14:28.533Z,70.13
2022-09-26T22:17:36.709Z,69.89
2022-09-26T22:20:46.546Z,70.36
2022-09-26T22:23:55.011Z,69.99
2022-09-26T22:27:03.302Z,69.97
2022-09-26T22:30:13.606Z,69.91
2022-09-26T22:33:22.715Z,69.93
2022-09-26T22:36:33.140Z,69.90
2022-09-26T22:39:41.629Z,69.67
2022-09-26T22:42:51.791Z,69.70
2022-09-26T22:46:03.740Z,70.65
2022-09-26T22:49:12.147Z,70.05
2022-09-26T22:52:21.901Z,70.63
2022-09-26T22:55:30.285Z,70.35
2022-09-26T22:58:41.303Z,70.39
2022-09-26T23:01:51.801Z,70.62
2022-09-26T23:05:00.229Z,70.65
2022-09-26T23:08:09.877Z,70.70
2022-09-26T23:11:19.989Z,70.79
2022-09-26T23:14:28.332Z,70.37
2022-09-26T23:17:36.625Z,70.61
2022-09-26T23:20:45.953Z,70.85
2022-09-26T23:24:00.230Z,71.04
2022-09-26T23:27:08.675Z,70.64
2022-09-26T23:30:17.031Z,71.13
2022-09-26T23:33:25.810Z,70.96
2022-09-26T23:36:33.966Z,70.94
2022-09-26T23:39:43.460Z,71.89
2022-09-26T23:42:52.009Z,71.88
2022-09-26T23:46:00.286Z,72.31
2022-09-26T23:49:08.786Z,73.16
2022-09-26T23:52:16.964Z,72.26
2022-09-26T23:55:26.407Z,71.61
2022-09-26T23:58:34.882Z,71.79
